Time;durP1;ratioP1;P1;durP2;ratioP2;P2;SDS_P1;SDS_P2;PMS_P1;PMS_P2;Temp;Humidity;BMP_temperature;BMP_pressure;BME280_temperature;BME280_humidity;BME280_pressure;Samples;Min_cycle;Max_cycle;Signal;HPM_P1;HPM_P2
2022/09/08 00:00:56;;;;;;;26.60;24.00;;;18.00;99.90;;;;;;5040477;28;20037;-80
2022/09/08 00:03:25;;;;;;;28.30;25.50;;;17.90;99.90;;;;;;5003548;28;20513;-80
2022/09/08 00:05:57;;;;;;;28.95;25.88;;;17.90;99.90;;;;;;5040123;28;20040;-80
2022/09/08 00:08:24;;;;;;;26.40;23.70;;;17.90;99.90;;;;;;5063674;28;20031;-79
2022/09/08 00:10:56;;;;;;;27.77;24.98;;;17.90;99.90;;;;;;5056797;28;20112;-80
2022/09/08 00:13:23;;;;;;;27.83;24.90;;;17.80;99.90;;;;;;5037363;28;20099;-80
2022/09/08 00:15:50;;;;;;;28.25;25.30;;;17.80;99.90;;;;;;5073010;28;20039;-79
2022/09/08 00:18:16;;;;;;;29.83;27.00;;;17.80;99.90;;;;;;5062568;28;20040;-79
2022/09/08 00:20:42;;;;;;;28.90;25.80;;;17.80;99.90;;;;;;5029496;28;20067;-80
2022/09/08 00:23:08;;;;;;;29.27;26.15;;;17.80;99.90;;;;;;5052315;28;20480;-80
2022/09/08 00:25:33;;;;;;;32.58;27.20;;;17.80;99.90;;;;;;5058454;28;20397;-80
2022/09/08 00:27:59;;;;;;;30.08;26.90;;;17.80;99.90;;;;;;5028678;28;20036;-80
2022/09/08 00:30:25;;;;;;;31.20;28.08;;;17.80;99.90;;;;;;5038692;28;20033;-79
2022/09/08 00:32:50;;;;;;;31.48;28.27;;;17.80;99.90;;;;;;5035501;28;20044;-79
2022/09/08 00:35:18;;;;;;;31.80;28.35;;;17.80;99.90;;;;;;5024177;28;20498;-80
2022/09/08 00:37:46;;;;;;;31.35;28.05;;;17.80;99.90;;;;;;5029178;28;20037;-80
2022/09/08 00:40:12;;;;;;;33.08;28.83;;;17.80;99.90;;;;;;5040922;28;20528;-79
2022/09/08 00:42:38;;;;;;;33.25;29.35;;;17.80;99.90;;;;;;5060182;28;20040;-79
2022/09/08 00:45:04;;;;;;;31.67;28.52;;;17.80;99.90;;;;;;5051328;28;20078;-80
2022/09/08 00:47:42;;;;;;;32.58;28.90;;;17.80;99.90;;;;;;5036700;28;20056;-80
2022/09/08 00:50:20;;;;;;;33.60;30.30;;;17.80;99.90;;;;;;5049577;28;20045;-80
2022/09/08 00:52:50;;;;;;;32.97;29.48;;;17.80;99.90;;;;;;5029633;28;20029;-80
2022/09/08 00:55:17;;;;;;;33.20;29.88;;;17.80;99.90;;;;;;5040442;28;20051;-79
2022/09/08 00:57:43;;;;;;;35.25;29.05;;;17.80;99.90;;;;;;5025998;28;20033;-79
2022/09/08 01:00:12;;;;;;;35.58;31.77;;;17.80;99.90;;;;;;5053577;28;20102;-78
2022/09/08 01:02:38;;;;;;;33.85;30.27;;;17.80;99.90;;;;;;5047780;28;20087;-78
2022/09/08 01:05:15;;;;;;;33.95;30.50;;;17.80;99.90;;;;;;5030064;28;20082;-79
2022/09/08 01:13:49;;;;;;;34.20;30.88;;;17.80;99.90;;;;;;5062571;28;20048;-79
2022/09/08 01:16:15;;;;;;;35.60;31.90;;;17.80;99.90;;;;;;5023034;28;20036;-79
2022/09/08 01:18:41;;;;;;;36.55;32.70;;;17.80;99.90;;;;;;5050490;28;20075;-79
2022/09/08 01:21:10;;;;;;;37.05;32.45;;;17.70;99.90;;;;;;5044411;28;20051;-79
2022/09/08 01:23:54;;;;;;;34.72;31.13;;;17.80;99.90;;;;;;5061174;28;20051;-79
2022/09/08 01:26:41;;;;;;;35.95;32.25;;;17.80;99.90;;;;;;5037783;28;20045;-79
2022/09/08 01:29:09;;;;;;;34.97;31.45;;;17.80;99.90;;;;;;5050743;28;20042;-79
2022/09/08 01:31:40;;;;;;;36.47;31.90;;;17.80;99.90;;;;;;5033984;28;20075;-79
2022/09/08 01:34:06;;;;;;;37.15;33.35;;;17.80;99.90;;;;;;5047380;28;20060;-79
2022/09/08 01:36:31;;;;;;;35.40;31.70;;;17.80;99.90;;;;;;5038291;28;20174;-79
2022/09/08 01:38:57;;;;;;;37.28;33.28;;;17.80;99.90;;;;;;5027895;28;20123;-79
2022/09/08 01:41:23;;;;;;;35.63;32.17;;;17.80;99.90;;;;;;5039889;28;20036;-80
2022/09/08 01:43:48;;;;;;;37.97;33.72;;;17.80;99.90;;;;;;5055840;28;20128;-80
2022/09/08 01:46:14;;;;;;;37.15;33.33;;;17.80;99.90;;;;;;5037932;28;20044;-79
2022/09/08 01:48:40;;;;;;;38.80;34.88;;;17.80;99.90;;;;;;5038065;28;20179;-79
2022/09/08 01:51:07;;;;;;;36.75;32.97;;;17.80;99.90;;;;;;5035488;28;20040;-79
2022/09/08 01:53:33;;;;;;;37.15;33.38;;;17.80;99.90;;;;;;5038526;28;20036;-79
2022/09/08 01:55:59;;;;;;;37.03;33.28;;;17.80;99.90;;;;;;5036318;28;20032;-79
2022/09/08 01:58:25;;;;;;;38.03;34.15;;;17.80;99.90;;;;;;5030284;28;20432;-79
2022/09/08 02:00:51;;;;;;;36.88;32.90;;;17.80;99.90;;;;;;5032189;28;20043;-79
2022/09/08 02:03:18;;;;;;;36.30;32.40;;;17.80;99.90;;;;;;5028279;28;20042;-79
2022/09/08 02:05:44;;;;;;;37.65;33.85;;;17.80;99.90;;;;;;5045740;28;20090;-79
2022/09/08 02:08:10;;;;;;;37.20;33.22;;;17.80;99.90;;;;;;5029031;28;20076;-79
2022/09/08 02:10:37;;;;;;;39.05;35.05;;;17.80;99.90;;;;;;5050423;28;20052;-79
2022/09/08 02:13:04;;;;;;;37.70;33.88;;;17.80;99.90;;;;;;5034503;28;20033;-80
2022/09/08 02:15:30;;;;;;;36.70;33.05;;;17.80;99.90;;;;;;5059780;28;20051;-79
2022/09/08 02:17:59;;;;;;;38.15;34.35;;;17.80;99.90;;;;;;5029848;28;20045;-79
2022/09/08 02:20:26;;;;;;;37.45;33.55;;;17.80;99.90;;;;;;5042218;28;20052;-79
2022/09/08 02:22:53;;;;;;;39.22;34.33;;;17.80;99.90;;;;;;5019918;28;20548;-79
2022/09/08 02:25:19;;;;;;;38.95;34.95;;;17.80;99.90;;;;;;5043204;28;20090;-79
2022/09/08 02:27:45;;;;;;;37.40;33.63;;;17.80;99.90;;;;;;5014888;28;20041;-79
2022/09/08 02:30:11;;;;;;;38.95;33.83;;;17.80;99.90;;;;;;5054912;28;20051;-79
2022/09/08 02:32:37;;;;;;;38.55;34.65;;;17.80;99.90;;;;;;5020746;28;20041;-79
2022/09/08 02:35:03;;;;;;;37.33;33.50;;;17.80;99.90;;;;;;5052941;28;20039;-79
2022/09/08 02:37:29;;;;;;;38.55;34.13;;;17.80;99.90;;;;;;5053285;28;20098;-79
2022/09/08 02:39:55;;;;;;;39.40;34.47;;;17.80;99.90;;;;;;5038150;28;20044;-79
2022/09/08 02:42:22;;;;;;;40.58;36.28;;;17.80;99.90;;;;;;5025467;28;20040;-79
2022/09/08 02:44:48;;;;;;;38.95;35.03;;;17.80;99.90;;;;;;5043548;28;20369;-79
2022/09/08 02:47:14;;;;;;;37.95;33.83;;;17.80;99.90;;;;;;5038999;28;20056;-79
2022/09/08 02:49:39;;;;;;;36.83;33.17;;;17.80;99.90;;;;;;5028505;28;20532;-79
2022/09/08 02:52:05;;;;;;;37.58;33.88;;;17.80;99.90;;;;;;5039104;28;20563;-79
2022/09/08 02:54:31;;;;;;;35.03;31.45;;;17.80;99.90;;;;;;5036765;28;20118;-80
2022/09/08 02:56:56;;;;;;;36.47;32.72;;;17.80;99.90;;;;;;5019843;28;20120;-79
2022/09/08 02:59:22;;;;;;;36.45;32.85;;;17.90;99.90;;;;;;5019082;28;20056;-79
2022/09/08 03:01:48;;;;;;;37.03;33.25;;;17.90;99.90;;;;;;5014566;28;20106;-79
2022/09/08 03:04:13;;;;;;;36.97;33.17;;;17.90;99.90;;;;;;5035049;28;20041;-80
2022/09/08 03:06:39;;;;;;;40.28;36.15;;;17.90;99.90;;;;;;5041297;28;20040;-79
2022/09/08 03:09:06;;;;;;;41.30;37.00;;;17.90;99.90;;;;;;5048135;28;20044;-79
2022/09/08 03:11:32;;;;;;;40.90;36.75;;;17.90;99.90;;;;;;5022407;28;20457;-79
2022/09/08 03:14:02;;;;;;;43.47;38.35;;;17.80;99.90;;;;;;5032981;28;20490;-80
2022/09/08 03:16:28;;;;;;;40.22;35.92;;;17.90;99.90;;;;;;5049580;28;20080;-80
2022/09/08 03:18:54;;;;;;;42.80;38.05;;;17.80;99.90;;;;;;5025911;28;20465;-80
2022/09/08 03:21:20;;;;;;;41.78;37.30;;;17.80;99.90;;;;;;5041993;28;20480;-79
2022/09/08 03:23:47;;;;;;;41.13;36.97;;;17.80;99.90;;;;;;5059123;28;20397;-79
2022/09/08 03:26:16;;;;;;;42.15;37.72;;;17.90;99.90;;;;;;5025199;28;20555;-79
2022/09/08 03:28:42;;;;;;;40.17;34.60;;;17.90;99.90;;;;;;5058254;28;20032;-79
2022/09/08 03:31:15;;;;;;;38.72;34.63;;;17.90;99.90;;;;;;5015103;28;20416;-79
2022/09/08 03:33:41;;;;;;;36.90;32.97;;;17.90;99.90;;;;;;5058591;28;20044;-79
2022/09/08 03:36:09;;;;;;;36.20;32.40;;;17.80;99.90;;;;;;5053641;28;20493;-80
2022/09/08 03:38:35;;;;;;;36.85;33.00;;;17.80;99.90;;;;;;5058980;28;20123;-79
2022/09/08 03:41:06;;;;;;;37.15;33.15;;;17.80;99.90;;;;;;5047884;28;20554;-80
2022/09/08 03:43:31;;;;;;;35.72;31.92;;;17.90;99.90;;;;;;5034712;28;20048;-80
2022/09/08 03:45:57;;;;;;;34.70;30.85;;;17.80;99.90;;;;;;5073668;28;20037;-80
2022/09/08 03:48:23;;;;;;;34.88;30.63;;;17.70;99.90;;;;;;5048614;28;20048;-80
2022/09/08 03:50:49;;;;;;;34.33;29.98;;;17.70;99.90;;;;;;5008014;28;20044;-79
2022/09/08 03:53:14;;;;;;;34.88;31.10;;;17.70;99.90;;;;;;5028443;28;20476;-79
2022/09/08 03:55:41;;;;;;;34.08;29.83;;;17.70;99.90;;;;;;5053296;28;20190;-80
2022/09/08 03:58:08;;;;;;;33.35;28.58;;;17.70;99.90;;;;;;5057182;28;20048;-79
2022/09/08 04:00:35;;;;;;;31.98;28.48;;;17.70;99.90;;;;;;5055878;28;20037;-79
2022/09/08 04:03:00;;;;;;;33.10;29.50;;;17.70;99.90;;;;;;5059348;28;20033;-79
2022/09/08 04:05:26;;;;;;;33.30;29.80;;;17.70;99.90;;;;;;5041347;28;20098;-79
2022/09/08 04:07:52;;;;;;;33.20;29.60;;;17.70;99.90;;;;;;5020510;28;20047;-79
2022/09/08 04:10:19;;;;;;;36.47;31.08;;;17.70;99.90;;;;;;5025402;28;20037;-79
2022/09/08 04:12:46;;;;;;;32.78;29.27;;;17.70;99.90;;;;;;5048343;28;20127;-79
2022/09/08 04:15:13;;;;;;;38.47;31.17;;;17.70;99.90;;;;;;5042982;28;20037;-79
2022/09/08 04:17:38;;;;;;;32.03;28.48;;;17.70;99.90;;;;;;5029595;28;20146;-79
2022/09/08 04:20:06;;;;;;;32.78;26.67;;;17.70;99.90;;;;;;5061829;28;20037;-79
2022/09/08 04:22:32;;;;;;;30.13;24.98;;;17.70;99.90;;;;;;5025394;28;20036;-79
2022/09/08 04:24:57;;;;;;;28.05;25.02;;;17.60;99.90;;;;;;5037540;28;20044;-79
2022/09/08 04:27:23;;;;;;;27.02;22.50;;;17.70;99.90;;;;;;5017780;28;20068;-79
2022/09/08 04:29:50;;;;;;;25.42;20.08;;;17.70;99.90;;;;;;5030933;28;20496;-79
2022/09/08 04:32:18;;;;;;;21.08;15.85;;;17.60;99.90;;;;;;5025103;28;20159;-79
2022/09/08 04:34:47;;;;;;;20.20;16.30;;;17.60;99.90;;;;;;5022766;28;20132;-79
2022/09/08 04:37:13;;;;;;;22.40;17.23;;;17.60;99.90;;;;;;5037992;28;20056;-79
2022/09/08 04:39:39;;;;;;;28.42;16.63;;;17.50;99.90;;;;;;5027495;28;20040;-79
2022/09/08 04:42:06;;;;;;;18.48;15.30;;;17.50;99.90;;;;;;5015255;28;20054;-79
2022/09/08 04:44:32;;;;;;;19.65;15.68;;;17.50;99.90;;;;;;5019308;28;20045;-79
2022/09/08 04:46:58;;;;;;;20.00;15.20;;;17.50;99.90;;;;;;5027804;28;20057;-79
2022/09/08 04:49:24;;;;;;;20.75;15.05;;;17.50;99.90;;;;;;5028703;28;20071;-80
2022/09/08 04:51:52;;;;;;;20.90;15.10;;;17.50;99.90;;;;;;5046068;28;20067;-79
2022/09/08 04:54:18;;;;;;;18.63;14.65;;;17.50;99.90;;;;;;5045120;28;20041;-79
2022/09/08 04:56:44;;;;;;;23.52;16.27;;;17.50;99.90;;;;;;5038370;28;20080;-79
2022/09/08 04:59:10;;;;;;;20.67;16.90;;;17.50;99.90;;;;;;5022673;28;20437;-79
2022/09/08 05:01:36;;;;;;;17.52;14.60;;;17.50;99.90;;;;;;5021156;28;20508;-79
2022/09/08 05:04:03;;;;;;;19.83;15.85;;;17.50;99.90;;;;;;5006102;28;20226;-79
2022/09/08 05:06:31;;;;;;;22.73;16.15;;;17.50;99.90;;;;;;5038794;28;20037;-79
2022/09/08 05:08:58;;;;;;;20.50;15.52;;;17.50;99.90;;;;;;5051291;28;20048;-79
2022/09/08 05:11:26;;;;;;;19.15;16.05;;;17.60;99.90;;;;;;5052214;28;20066;-79
2022/09/08 05:13:53;;;;;;;22.45;16.88;;;17.50;99.90;;;;;;5050650;28;20029;-78
2022/09/08 05:16:21;;;;;;;19.73;16.70;;;17.40;99.90;;;;;;5016301;28;20067;-78
2022/09/08 05:18:49;;;;;;;20.50;16.98;;;17.40;99.90;;;;;;5035870;28;20090;-79
2022/09/08 05:21:15;;;;;;;21.05;18.65;;;17.40;99.90;;;;;;5038735;28;20173;-79
2022/09/08 05:23:42;;;;;;;26.48;21.60;;;17.30;99.90;;;;;;5044456;28;20045;-78
2022/09/08 05:26:13;;;;;;;25.40;21.77;;;17.40;99.90;;;;;;5033460;28;20048;-78
2022/09/08 05:28:40;;;;;;;29.45;24.20;;;17.40;99.90;;;;;;5033560;28;20079;-79
2022/09/08 05:31:09;;;;;;;31.45;25.02;;;17.30;99.90;;;;;;5050382;28;20106;-78
2022/09/08 05:33:35;;;;;;;33.88;28.60;;;17.30;99.90;;;;;;5056809;28;20036;-78
2022/09/08 05:36:01;;;;;;;34.80;30.38;;;17.30;99.90;;;;;;5033265;28;20120;-79
2022/09/08 05:38:27;;;;;;;37.78;30.73;;;17.40;99.90;;;;;;5027506;28;20037;-79
2022/09/08 05:40:53;;;;;;;33.80;30.25;;;17.40;99.90;;;;;;5029253;28;20449;-79
2022/09/08 05:43:19;;;;;;;37.25;31.00;;;17.40;99.90;;;;;;5010015;28;20052;-79
2022/09/08 05:45:47;;;;;;;34.40;30.58;;;17.40;99.90;;;;;;5049268;28;20037;-79
2022/09/08 05:48:14;;;;;;;41.03;33.95;;;17.40;99.90;;;;;;5082057;28;20055;-79
2022/09/08 05:50:44;;;;;;;41.42;32.83;;;17.40;99.90;;;;;;5060969;28;20089;-79
2022/09/08 05:53:11;;;;;;;39.00;34.67;;;17.50;99.90;;;;;;5026687;28;20556;-79
2022/09/08 05:55:37;;;;;;;39.60;33.10;;;17.40;99.90;;;;;;5033081;28;20044;-79
2022/09/08 05:58:02;;;;;;;41.50;33.70;;;17.50;99.90;;;;;;5042633;28;20044;-79
2022/09/08 06:00:28;;;;;;;44.45;33.70;;;17.50;99.90;;;;;;5037051;28;20453;-79
2022/09/08 06:02:54;;;;;;;46.30;36.10;;;17.50;99.90;;;;;;5031958;28;20033;-79
2022/09/08 06:05:21;;;;;;;40.35;35.20;;;17.50;99.90;;;;;;5020446;28;20047;-79
2022/09/08 06:07:48;;;;;;;44.22;36.17;;;17.50;99.90;;;;;;5033355;28;20060;-79
2022/09/08 06:10:14;;;;;;;39.10;34.20;;;17.60;99.90;;;;;;5022207;28;20045;-79
2022/09/08 06:12:40;;;;;;;39.88;35.47;;;17.60;99.90;;;;;;5056705;28;20082;-79
2022/09/08 06:15:07;;;;;;;38.10;33.88;;;17.60;99.90;;;;;;5034528;28;21222;-79
2022/09/08 06:17:35;;;;;;;41.50;34.00;;;17.60;99.90;;;;;;5033806;28;20095;-79
2022/09/08 06:20:02;;;;;;;38.67;34.33;;;17.70;99.90;;;;;;5035498;28;20396;-79
2022/09/08 06:22:32;;;;;;;40.50;35.22;;;17.70;99.90;;;;;;5029726;28;20122;-80
2022/09/08 06:24:59;;;;;;;41.50;35.78;;;17.70;99.90;;;;;;5048248;28;20056;-79
2022/09/08 06:27:37;;;;;;;30.67;24.83;;;17.70;99.90;;;;;;5063480;28;20040;-79
2022/09/08 06:30:12;;;;;;;25.00;20.75;;;17.70;99.90;;;;;;5035655;28;20030;-79
2022/09/08 06:32:54;;;;;;;22.35;19.27;;;17.70;99.90;;;;;;5050279;28;20102;-79
2022/09/08 06:35:36;;;;;;;21.60;16.42;;;17.60;99.90;;;;;;5046072;28;20100;-79
2022/09/08 06:38:11;;;;;;;21.20;16.83;;;17.60;99.90;;;;;;5042552;28;20040;-79
2022/09/08 06:40:49;;;;;;;23.05;17.10;;;17.60;99.90;;;;;;5041737;28;20052;-79
2022/09/08 06:43:39;;;;;;;17.92;14.90;;;17.50;99.90;;;;;;5062279;28;20048;-79
2022/09/08 06:46:24;;;;;;;15.85;13.32;;;17.50;99.90;;;;;;5060166;28;20080;-79
2022/09/08 06:48:52;;;;;;;15.07;11.18;;;17.50;99.90;;;;;;5038786;28;20044;-80
2022/09/08 06:51:34;;;;;;;15.20;10.93;;;17.50;99.90;;;;;;5038572;28;20045;-80
2022/09/08 06:54:09;;;;;;;15.18;8.73;;;17.50;99.90;;;;;;5044550;28;20037;-80
2022/09/08 06:56:56;;;;;;;10.15;7.07;;;17.40;99.90;;;;;;5038001;28;20044;-80
2022/09/08 06:59:42;;;;;;;10.35;6.45;;;17.40;99.90;;;;;;5048930;28;20041;-79
2022/09/08 07:02:11;;;;;;;11.18;5.97;;;17.50;99.90;;;;;;5025605;28;20124;-79
2022/09/08 07:04:50;;;;;;;11.68;6.28;;;17.50;99.90;;;;;;5045598;28;20059;-79
2022/09/08 07:07:50;;;;;;;11.63;6.47;;;17.50;99.90;;;;;;5056351;28;20068;-80
2022/09/08 07:10:47;;;;;;;11.52;6.95;;;17.50;99.90;;;;;;5037061;28;20052;-79
2022/09/08 07:13:54;;;;;;;10.55;6.35;;;17.50;99.90;;;;;;5019977;28;20056;-79
2022/09/08 07:16:26;;;;;;;10.27;7.28;;;17.50;99.90;;;;;;5073760;28;20140;-78
2022/09/08 07:19:04;;;;;;;10.43;6.07;;;17.50;99.90;;;;;;5061703;28;20067;-78
2022/09/08 07:21:47;;;;;;;9.55;5.45;;;17.50;99.90;;;;;;5051655;28;20047;-78
2022/09/08 07:24:15;;;;;;;10.20;6.07;;;17.50;99.90;;;;;;5047377;28;20063;-79
2022/09/08 07:26:53;;;;;;;9.40;5.80;;;17.40;99.90;;;;;;5046351;28;20544;-79
2022/09/08 07:29:21;;;;;;;14.68;6.15;;;17.50;99.90;;;;;;5053593;28;20066;-80
2022/09/08 07:31:50;;;;;;;12.20;5.55;;;17.50;99.90;;;;;;5052401;28;20120;-79
2022/09/08 07:34:22;;;;;;;7.13;5.22;;;17.50;99.90;;;;;;5052975;28;20048;-79
2022/09/08 07:37:01;;;;;;;10.43;5.47;;;17.50;99.90;;;;;;5051178;28;20038;-80
2022/09/08 07:39:35;;;;;;;10.27;5.65;;;17.50;99.90;;;;;;5033977;28;20059;-80
2022/09/08 07:42:03;;;;;;;11.75;5.90;;;17.50;99.90;;;;;;5053802;28;20045;-79
2022/09/08 07:44:29;;;;;;;13.00;6.10;;;17.50;99.90;;;;;;5054949;28;20045;-80
2022/09/08 07:46:58;;;;;;;9.27;5.38;;;17.50;99.90;;;;;;5021830;28;20057;-80
2022/09/08 07:49:41;;;;;;;13.38;6.78;;;17.50;99.90;;;;;;5048552;28;20044;-80
2022/09/08 07:52:37;;;;;;;9.30;6.35;;;17.60;99.90;;;;;;5043755;28;20045;-79
2022/09/08 07:55:32;;;;;;;8.80;6.10;;;17.30;99.90;;;;;;5047786;28;20041;-79
2022/09/08 07:58:13;;;;;;;11.50;6.30;;;17.50;99.90;;;;;;5054707;28;20053;-79
2022/09/08 08:00:42;;;;;;;10.23;6.97;;;17.50;99.90;;;;;;5037104;28;20547;-79
2022/09/08 08:03:13;;;;;;;13.70;7.07;;;17.50;99.90;;;;;;5039126;28;20056;-79
2022/09/08 08:05:58;;;;;;;12.35;6.93;;;17.50;99.90;;;;;;5043508;28;20036;-79
2022/09/08 08:08:41;;;;;;;11.13;6.70;;;17.50;99.90;;;;;;5046586;28;20050;-79
2022/09/08 08:11:28;;;;;;;10.68;6.85;;;17.50;99.90;;;;;;5031074;28;20044;-78
2022/09/08 08:14:20;;;;;;;12.13;6.82;;;17.50;99.90;;;;;;5057419;28;20089;-79
2022/09/08 08:16:52;;;;;;;10.20;7.25;;;17.50;99.90;;;;;;5041347;28;20045;-79
2022/09/08 08:19:46;;;;;;;8.95;6.53;;;17.60;99.90;;;;;;5033164;28;20405;-80
2022/09/08 08:22:36;;;;;;;10.15;6.30;;;17.50;99.90;;;;;;5051052;28;20083;-81
2022/09/08 08:25:11;;;;;;;6.88;5.22;;;17.50;99.90;;;;;;5032393;28;20077;-80
2022/09/08 08:28:03;;;;;;;8.20;5.75;;;17.50;99.90;;;;;;5049888;28;20033;-79
2022/09/08 08:30:29;;;;;;;8.02;5.50;;;17.50;99.90;;;;;;5055097;28;20045;-80
2022/09/08 08:33:15;;;;;;;6.90;4.93;;;17.50;99.90;;;;;;5049068;28;20115;-80
2022/09/08 08:35:47;;;;;;;10.57;6.28;;;17.50;99.90;;;;;;5033047;28;20040;-80
2022/09/08 08:38:30;;;;;;;7.00;5.40;;;17.50;99.90;;;;;;5064124;28;20043;-80
2022/09/08 08:40:58;;;;;;;10.68;5.95;;;17.50;99.90;;;;;;5058415;28;20173;-80
2022/09/08 08:43:51;;;;;;;9.45;5.82;;;17.50;99.90;;;;;;5058235;28;20512;-81
2022/09/08 08:46:35;;;;;;;8.38;6.10;;;17.50;99.90;;;;;;5041016;28;20037;-81
2022/09/08 08:49:07;;;;;;;9.30;6.20;;;17.50;99.90;;;;;;5056063;28;20056;-81
2022/09/08 08:51:48;;;;;;;10.95;6.32;;;17.40;99.90;;;;;;5055590;28;20051;-81
2022/09/08 08:54:16;;;;;;;12.48;6.35;;;17.40;99.90;;;;;;5042305;28;20032;-81
2022/09/08 08:56:56;;;;;;;10.70;6.00;;;17.40;99.90;;;;;;5042514;28;20383;-80
2022/09/08 08:59:44;;;;;;;8.38;5.90;;;17.40;99.90;;;;;;5067510;28;20048;-81
2022/09/08 09:02:43;;;;;;;7.30;5.38;;;17.40;99.90;;;;;;5047529;28;20052;-80
2022/09/08 09:05:37;;;;;;;6.82;4.90;;;17.40;99.90;;;;;;5043133;28;20085;-80
2022/09/08 09:08:02;;;;;;;9.32;5.13;;;17.40;99.90;;;;;;5042648;28;20036;-80
2022/09/08 09:10:41;;;;;;;8.38;5.03;;;17.30;99.90;;;;;;5047605;28;20047;-80
2022/09/08 09:13:21;;;;;;;8.02;4.50;;;17.40;99.90;;;;;;5025516;28;20040;-80
2022/09/08 09:16:08;;;;;;;6.78;4.55;;;17.40;99.90;;;;;;5036906;28;20047;-79
2022/09/08 09:18:49;;;;;;;9.02;5.30;;;17.30;99.90;;;;;;5035689;28;20041;-80
2022/09/08 09:21:20;;;;;;;6.60;4.43;;;17.30;99.90;;;;;;5032059;28;20033;-80
2022/09/08 09:24:15;;;;;;;6.80;4.45;;;17.30;99.90;;;;;;5040383;28;20036;-80
2022/09/08 09:26:48;;;;;;;7.50;5.35;;;17.30;99.90;;;;;;5062964;28;20036;-80
2022/09/08 09:29:25;;;;;;;5.82;4.53;;;17.30;99.90;;;;;;5056061;28;20119;-79
2022/09/08 09:32:27;;;;;;;9.10;4.32;;;17.30;99.90;;;;;;5045290;28;20116;-79
2022/09/08 09:35:06;;;;;;;9.40;4.82;;;17.30;99.90;;;;;;5048796;28;20094;-79
2022/09/08 09:37:41;;;;;;;7.43;4.57;;;17.30;99.90;;;;;;5057199;28;20101;-80
2022/09/08 09:40:39;;;;;;;8.88;4.88;;;17.30;99.90;;;;;;5053065;28;20510;-80
2022/09/08 09:43:31;;;;;;;6.07;4.80;;;17.30;99.90;;;;;;4988265;28;20067;-81
2022/09/08 09:46:06;;;;;;;6.78;4.55;;;17.30;99.90;;;;;;5038117;28;20085;-81
2022/09/08 09:48:54;;;;;;;7.32;4.82;;;17.30;99.90;;;;;;5025123;28;20052;-79
2022/09/08 09:51:51;;;;;;;5.45;4.82;;;17.30;99.90;;;;;;5051295;28;20036;-79
2022/09/08 09:54:38;;;;;;;9.65;5.28;;;17.30;99.90;;;;;;5053193;28;20036;-79
2022/09/08 09:57:16;;;;;;;7.35;5.05;;;17.30;99.90;;;;;;5038996;28;20040;-79
2022/09/08 10:00:14;;;;;;;7.43;5.30;;;17.30;99.90;;;;;;5056175;28;20377;-81
2022/09/08 10:03:17;;;;;;;6.05;5.15;;;17.30;99.90;;;;;;5038076;28;20504;-79
2022/09/08 10:06:05;;;;;;;6.30;4.85;;;17.40;99.90;;;;;;5030867;28;20052;-79
2022/09/08 10:08:48;;;;;;;8.15;4.88;;;17.30;99.90;;;;;;5034770;28;20040;-78
2022/09/08 10:11:28;;;;;;;6.20;5.20;;;17.30;99.90;;;;;;5044693;28;20039;-77
2022/09/08 10:14:23;;;;;;;5.72;5.13;;;17.30;99.90;;;;;;5037811;28;20102;-79
2022/09/08 10:16:54;;;;;;;9.40;4.95;;;17.30;99.90;;;;;;5060650;28;20485;-80
2022/09/08 10:19:29;;;;;;;5.63;4.93;;;17.30;99.90;;;;;;5033185;28;20040;-79
2022/09/08 10:22:28;;;;;;;6.47;4.97;;;17.30;99.90;;;;;;5050531;28;20063;-78
2022/09/08 10:25:32;;;;;;;6.13;4.70;;;17.30;99.90;;;;;;5049839;28;20137;-78
2022/09/08 10:28:34;;;;;;;7.00;4.35;;;17.30;99.90;;;;;;5054359;28;20044;-78
2022/09/08 10:31:16;;;;;;;6.57;4.60;;;17.30;99.90;;;;;;5034067;28;20048;-78
2022/09/08 10:34:03;;;;;;;4.80;4.40;;;17.30;99.90;;;;;;5054131;28;20056;-77
2022/09/08 10:36:51;;;;;;;5.60;4.15;;;17.30;99.90;;;;;;5061048;28;20041;-80
2022/09/08 10:40:05;;;;;;;5.95;3.88;;;17.30;99.90;;;;;;5051762;28;20465;-80
2022/09/08 10:42:51;;;;;;;4.82;4.15;;;17.30;99.90;;;;;;4995398;28;20145;-78
2022/09/08 10:45:51;;;;;;;5.13;4.63;;;17.30;99.90;;;;;;5041848;28;20511;-78
2022/09/08 10:48:58;;;;;;;5.55;3.95;;;17.30;99.90;;;;;;5058460;28;20057;-78
2022/09/08 10:51:36;;;;;;;;;;;17.40;99.90;;;;;;5044173;28;20585;-78
2022/09/08 10:54:35;;;;;;;5.20;3.75;;;17.40;99.90;;;;;;5046718;28;20359;-78
2022/09/08 10:57:29;;;;;;;4.18;3.42;;;17.40;99.90;;;;;;5059377;28;20124;-79
2022/09/08 11:00:13;;;;;;;4.82;3.47;;;17.50;99.90;;;;;;5041849;28;20559;-78
2022/09/08 11:03:15;;;;;;;7.38;4.10;;;17.50;99.90;;;;;;5059190;28;20067;-79
2022/09/08 11:05:48;;;;;;;6.82;4.28;;;17.60;99.90;;;;;;5048860;28;20040;-79
2022/09/08 11:08:14;;;;;;;7.78;5.00;;;17.60;99.90;;;;;;5043455;28;20044;-79
2022/09/08 11:11:12;;;;;;;6.50;4.97;;;17.70;99.90;;;;;;5040411;28;20064;-79
2022/09/08 11:14:10;;;;;;;6.15;5.55;;;17.70;99.90;;;;;;5006868;28;20080;-79
2022/09/08 11:16:51;;;;;;;7.20;5.80;;;17.70;99.90;;;;;;5044528;28;20036;-79
2022/09/08 11:19:37;;;;;;;7.60;6.15;;;17.80;99.90;;;;;;5046672;28;20087;-79
2022/09/08 11:22:10;;;;;;;8.07;7.05;;;17.80;99.90;;;;;;5076626;28;20044;-79
2022/09/08 11:24:54;;;;;;;9.00;7.40;;;17.80;99.90;;;;;;5051396;28;20540;-80
2022/09/08 11:27:46;;;;;;;9.60;8.30;;;17.90;99.90;;;;;;5034163;28;20052;-79
2022/09/08 11:30:19;;;;;;;10.38;8.65;;;17.90;99.90;;;;;;5065171;28;20051;-79
2022/09/08 11:33:23;;;;;;;10.27;9.25;;;18.00;99.90;;;;;;5075222;28;20020;-78
2022/09/08 11:36:29;;;;;;;11.25;9.48;;;18.00;99.90;;;;;;5063579;28;20075;-79
2022/09/08 11:39:17;;;;;;;12.45;8.80;;;18.10;99.90;;;;;;5048760;28;20060;-79
2022/09/08 11:42:08;;;;;;;10.60;9.50;;;18.10;99.90;;;;;;5040137;28;20041;-79
2022/09/08 11:45:05;;;;;;;10.98;9.82;;;18.20;99.90;;;;;;5043863;28;20048;-80
2022/09/08 11:47:56;;;;;;;11.48;9.80;;;18.20;99.90;;;;;;5061095;28;20053;-78
2022/09/08 11:50:40;;;;;;;11.30;9.65;;;18.20;99.90;;;;;;5049397;28;20052;-79
2022/09/08 11:53:27;;;;;;;12.55;10.20;;;18.30;99.90;;;;;;5056663;28;20086;-78
2022/09/08 11:56:27;;;;;;;12.15;10.70;;;18.40;99.90;;;;;;5070711;28;20059;-79
2022/09/08 11:59:14;;;;;;;12.15;10.63;;;18.50;99.90;;;;;;5037847;28;20051;-79
2022/09/08 12:01:58;;;;;;;12.82;11.07;;;18.60;99.90;;;;;;5076171;28;20055;-79
2022/09/08 12:04:49;;;;;;;12.85;10.57;;;18.70;99.90;;;;;;5032236;28;20037;-79
2022/09/08 12:07:30;;;;;;;11.30;10.10;;;18.80;99.90;;;;;;5058154;28;20470;-79
2022/09/08 12:10:27;;;;;;;12.98;10.48;;;18.80;99.90;;;;;;5056216;28;20036;-79
2022/09/08 12:13:11;;;;;;;;;;;18.90;99.90;;;;;;5041506;28;20105;-80
2022/09/08 12:15:56;;;;;;;11.40;9.48;;;18.90;99.90;;;;;;5038723;28;20348;-80
2022/09/08 12:19:01;;;;;;;12.80;10.68;;;19.00;99.90;;;;;;5060188;28;20051;-80
2022/09/08 12:21:45;;;;;;;14.75;10.43;;;19.10;99.90;;;;;;5068243;28;20049;-80
2022/09/08 12:24:11;;;;;;;13.20;11.52;;;19.20;99.90;;;;;;5063961;28;20102;-80
2022/09/08 12:26:42;;;;;;;12.93;10.60;;;19.30;99.90;;;;;;5061459;28;20502;-80
2022/09/08 12:29:40;;;;;;;11.75;9.68;;;19.40;99.90;;;;;;5056660;28;20036;-80
2022/09/08 12:32:18;;;;;;;11.60;10.48;;;19.40;99.90;;;;;;5035283;28;20051;-80
2022/09/08 12:35:05;;;;;;;13.77;10.60;;;19.50;99.90;;;;;;5039331;28;20044;-80
2022/09/08 12:37:51;;;;;;;12.02;10.30;;;19.60;99.90;;;;;;5047079;28;20040;-80
2022/09/08 12:40:26;;;;;;;13.05;10.45;;;19.60;99.90;;;;;;5051970;28;20040;-80
2022/09/08 12:43:18;;;;;;;11.07;9.68;;;19.70;99.90;;;;;;5044499;28;20132;-80
2022/09/08 12:46:02;;;;;;;12.50;9.45;;;19.60;99.90;;;;;;5052676;28;20431;-80
2022/09/08 12:48:46;;;;;;;13.88;9.30;;;19.60;99.90;;;;;;5043449;28;20401;-80
2022/09/08 12:51:24;;;;;;;11.27;8.93;;;19.70;99.90;;;;;;5052459;28;20043;-80
2022/09/08 12:54:28;;;;;;;10.90;9.10;;;19.80;99.90;;;;;;5036037;28;20041;-80
2022/09/08 12:57:28;;;;;;;10.38;8.30;;;19.90;99.90;;;;;;5047909;28;20048;-80
2022/09/08 13:00:07;;;;;;;10.82;8.88;;;19.90;99.90;;;;;;5038051;28;20041;-80
2022/09/08 13:02:55;;;;;;;8.65;7.75;;;19.80;99.90;;;;;;5054246;28;20658;-80
2022/09/08 13:05:40;;;;;;;9.95;8.20;;;19.80;99.90;;;;;;5031637;28;20044;-81
2022/09/08 13:08:12;;;;;;;10.25;7.68;;;19.70;99.90;;;;;;5034192;28;20552;-80
2022/09/08 13:10:41;;;;;;;9.95;7.57;;;19.70;99.90;;;;;;5032914;28;20058;-80
2022/09/08 13:13:34;;;;;;;10.07;7.70;;;19.70;99.90;;;;;;5038454;28;20036;-80
2022/09/08 13:16:03;;;;;;;9.70;8.10;;;19.70;99.90;;;;;;5051003;28;20033;-80
2022/09/08 13:18:41;;;;;;;8.43;7.63;;;20.10;99.90;;;;;;5033865;28;20509;-80
2022/09/08 13:21:40;;;;;;;10.48;8.32;;;20.80;99.90;;;;;;5050174;28;20176;-82